»·PEaware :: N137TH KSEA-KEUG

N137TH :: KSEA-KEUG

FLIGHT INFORMATION

Flight Status: Arrived
Operator: Privately registered:
United States
More flights under this callsign
Pilot: Teofilo H. (11827)
Aircraft: BEECH AIRCRAFT SUPER KING AIR COMMUTER
(BE20)
More flights by this aircraft type
Origin: KSEA Seattle-Tacoma Intl
United States
Destination: KEUG Mahlon Sweet
United States
More flights between these airports :: More routes between these airports
Route: SEA6 SEA J1 BTG EUG
File this flight plan on PilotEdge
Remarks:
Altitude:
(Current/Filed)
24,000ft
Speed:
(Current/Filed)
240kts
Departed: 09-Dec-17 12:46 PM
Arrived: 09-Dec-17 01:46 PM
Distance/Time
Traveled:
204nm/0:59
Distance/Time
To Go:
Arrived

Flight Plot

Page will automatically refresh every two minutes.

Flight plan parsing failed; only flown route is shown


Map Options




Map Legend


Flown Route
Filed Route
Departure Airport
Arrival Airport
Navaid (VOR, NDB)
Fix

Horizontal Profiles

Position Reports

Time Latitude Longitude Heading Altitude Ground
Speed
09-Dec-17 12:42 47.462548 -122.302661 359 436ft 0kts
09-Dec-17 12:43 47.462548 -122.302661 359 436ft 0kts
09-Dec-17 12:44 47.462548 -122.302661 359 436ft 0kts
09-Dec-17 12:45 47.462548 -122.302661 359 436ft 0kts
09-Dec-17 12:46 47.462548 -122.302661 359 436ft 0kts
09-Dec-17 12:47 47.462548 -122.302661 359 436ft 0kts
09-Dec-17 12:48 47.462548 -122.302661 359 436ft 0kts
09-Dec-17 12:49 47.462583 -122.304552 270 430ft 8kts
09-Dec-17 12:50 47.463693 -122.306302 290 412ft 0kts
09-Dec-17 12:51 47.455386 -122.307838 181 436ft 132kts
09-Dec-17 12:52 47.417545 -122.306999 178 2787ft 147kts
09-Dec-17 12:53 47.379382 -122.305331 182 5525ft 136kts
09-Dec-17 12:54 47.341194 -122.307441 183 7907ft 153kts
09-Dec-17 12:55 47.292689 -122.313038 189 9375ft 189kts
09-Dec-17 12:56 47.239535 -122.323075 189 10776ft 198kts
09-Dec-17 12:57 47.183695 -122.333396 189 12166ft 207kts
09-Dec-17 12:58 47.126678 -122.343909 190 13548ft 206kts
09-Dec-17 12:59 47.070392 -122.354263 190 14927ft 202kts
09-Dec-17 13:00 47.013456 -122.364760 191 16317ft 212kts
09-Dec-17 13:01 46.954828 -122.375486 191 17692ft 213kts
09-Dec-17 13:02 46.897870 -122.385910 191 19032ft 211kts
09-Dec-17 13:03 46.847347 -122.395148 191 20239ft 214kts
09-Dec-17 13:04 46.788882 -122.405786 191 21575ft 215kts
09-Dec-17 13:05 46.727507 -122.416976 191 22383ft 228kts
09-Dec-17 13:06 46.664087 -122.428450 191 23181ft 231kts
09-Dec-17 13:07 46.600430 -122.439946 191 23971ft 231kts
09-Dec-17 13:08 46.536721 -122.451456 191 24454ft 240kts
09-Dec-17 13:09 46.468486 -122.463759 191 24453ft 253kts
09-Dec-17 13:10 46.398753 -122.476261 191 24431ft 257kts
09-Dec-17 13:11 46.327728 -122.488970 191 24451ft 258kts
09-Dec-17 13:12 46.256429 -122.501709 191 24450ft 258kts
09-Dec-17 13:13 46.185314 -122.514372 191 24450ft 258kts
09-Dec-17 13:14 46.114183 -122.527008 191 24450ft 258kts
09-Dec-17 13:16 46.043031 -122.539614 191 24449ft 258kts
09-Dec-17 13:17 45.972084 -122.552153 191 24449ft 258kts
09-Dec-17 13:18 45.900864 -122.564707 191 24449ft 258kts
09-Dec-17 13:19 45.837669 -122.575816 191 24453ft 259kts
09-Dec-17 13:20 45.772087 -122.587318 191 24470ft 258kts
09-Dec-17 13:21 45.712576 -122.605694 198 24479ft 256kts
09-Dec-17 13:22 45.644034 -122.632975 198 24479ft 256kts
09-Dec-17 13:23 45.576381 -122.659863 198 24482ft 257kts
09-Dec-17 13:24 45.507724 -122.687103 198 24481ft 257kts
09-Dec-17 13:25 45.438933 -122.714597 196 24481ft 258kts
09-Dec-17 13:26 45.370187 -122.741486 196 24480ft 258kts
09-Dec-17 13:27 45.301193 -122.768608 196 24480ft 258kts
09-Dec-17 13:28 45.232078 -122.795802 196 24480ft 258kts
09-Dec-17 13:29 45.162786 -122.822907 196 24113ft 261kts
09-Dec-17 13:30 45.093364 -122.850015 195 22711ft 260kts
09-Dec-17 13:31 45.023828 -122.877113 195 21297ft 259kts
09-Dec-17 13:32 44.955168 -122.903802 195 19892ft 258kts
09-Dec-17 13:33 44.887794 -122.929938 195 18512ft 257kts
09-Dec-17 13:34 44.819366 -122.956433 195 17129ft 256kts
09-Dec-17 13:35 44.750664 -122.982958 194 15741ft 257kts
09-Dec-17 13:36 44.681602 -123.009527 194 14351ft 259kts
09-Dec-17 13:37 44.611939 -123.036618 194 12955ft 261kts
09-Dec-17 13:38 44.542251 -123.063898 194 11567ft 263kts
09-Dec-17 13:39 44.471754 -123.091644 194 10167ft 264kts
09-Dec-17 13:41 44.345734 -123.141662 194 9878ft 235kts
09-Dec-17 13:42 44.324770 -123.216601 286 7653ft 255kts
09-Dec-17 13:43 44.344301 -123.308837 291 5431ft 239kts
09-Dec-17 13:44 44.399865 -123.311836 25 3350ft 227kts
09-Dec-17 13:45 44.393838 -123.257588 164 3007ft 180kts
09-Dec-17 13:46 44.352691 -123.222114 146 3010ft 186kts
09-Dec-17 13:47 44.307628 -123.179863 146 3004ft 188kts
09-Dec-17 13:48 44.256132 -123.177357 188 3006ft 189kts
09-Dec-17 13:49 44.207670 -123.199818 212 2648ft 185kts
09-Dec-17 13:50 44.162464 -123.219705 177 990ft 154kts
09-Dec-17 13:51 44.125354 -123.218954 180 361ft 58kts
09-Dec-17 13:52 44.120949 -123.217442 84 364ft 0kts
09-Dec-17 13:53 44.119160 -123.216978 179 366ft 12kts
09-Dec-17 13:54 44.115603 -123.215876 90 368ft 6kts
09-Dec-17 13:55 44.116025 -123.215759 43 368ft 0kts
09-Dec-17 13:56 44.116025 -123.215759 43 368ft 0kts
09-Dec-17 13:57 44.116025 -123.215759 43 368ft 0kts
09-Dec-17 13:58 44.116025 -123.215759 43 368ft 0kts
09-Dec-17 13:59 44.116025 -123.215759 43 368ft 0kts
09-Dec-17 14:00 44.116025 -123.215759 43 368ft 0kts
09-Dec-17 14:00 44.116025 -123.215759 43 368ft 0kts
09-Dec-17 14:02 44.116025 -123.215759 43 368ft 0kts
09-Dec-17 14:02 44.116025 -123.215759 43 368ft 0kts
09-Dec-17 14:03 44.116025 -123.215759 43 368ft 0kts
09-Dec-17 14:05 44.116025 -123.215759 43 368ft 0kts

Navigation Log

Ident Type
Flight plan parsing failed, navigation log unavailable